Meteorología y climatología de Navarra
Datos de la estación - Meteo Navarra

Estación de Arangoiti GN

Altitud 1353 m.


Datos desde el 09/11/2018 hasta el 10/11/2018 en horario solar
Los datos son PROVISIONALES

Anterior Página 1 de 1 Siguiente Descargar: Formato para Excel 2000 o superior   Formato csv   Formato para OpenOffice Calc
Fecha Temperatura Humedad relativa Radiación global Insolación Precipitación Velocidad viento 10 m Velocidad viento 10 m Dirección viento 10 m
ºC % W/m² s l/m² m/s km/h º
09/11/2018 0:00 5.3 100 0.0 0 0.8 3.8 13.7 152
09/11/2018 0:10 3.0 100 0.0 0 4.9 6.5 23.2 8
09/11/2018 0:20 2.8 100 0.0 0 0.9 7.7 27.7 327
09/11/2018 0:30 2.6 100 0.0 0 1.3 6.8 24.5 319
09/11/2018 0:40 3.3 100 0.0 0 0.6 5.4 19.5 315
09/11/2018 0:50 3.0 100 0.0 0 0.7 4.9 17.6 310
09/11/2018 1:00 3.0 100 0.0 0 0.3 5.0 18.0 342
09/11/2018 1:10 3.0 100 0.0 0 0.3 4.9 17.5 346
09/11/2018 1:20 3.2 100 0.0 0 0.1 5.9 21.2 352
09/11/2018 1:30 3.3 100 0.0 0 0.1 5.8 21.0 351
09/11/2018 1:40 3.0 100 0.0 0 0.0 6.5 23.4 359
09/11/2018 1:50 3.2 100 0.0 0 0.0 7.3 26.4 3
09/11/2018 2:00 3.2 100 0.0 0 0.0 7.8 28.1 2
09/11/2018 2:10 3.1 100 0.0 0 0.0 7.4 26.7 3
09/11/2018 2:20 2.7 100 0.0 0 0.0 7.0 25.2 7
09/11/2018 2:30 3.1 100 0.0 0 0.0 7.0 25.1 5
09/11/2018 2:40 2.9 100 0.0 0 0.0 8.1 29.1 4
09/11/2018 2:50 2.9 100 0.0 0 0.0 8.4 30.3 3
09/11/2018 3:00 2.9 100 0.0 0 0.0 8.6 30.8 3
09/11/2018 3:10 3.6 100 0.0 0 0.0 8.9 32.0 7
09/11/2018 3:20 3.2 100 0.0 0 0.0 8.7 31.5 7
09/11/2018 3:30 3.1 100 0.0 0 0.0 9.1 32.6 5
09/11/2018 3:40 2.8 100 0.0 0 0.0 8.8 31.7 6
09/11/2018 3:50 2.8 100 0.0 0 0.0 9.0 32.3 4
09/11/2018 4:00 2.7 100 0.0 0 0.0 9.1 32.6 2
09/11/2018 4:10 2.8 100 0.0 0 0.0 9.2 33.1 3
09/11/2018 4:20 2.8 100 0.0 0 0.1 10.4 37.5 1
09/11/2018 4:30 2.6 100 0.0 0 0.1 10.4 37.4 2
09/11/2018 4:40 2.7 100 0.0 0 0.3 10.7 38.4 0
09/11/2018 4:50 2.7 100 0.0 0 0.0 11.8 42.3 359
09/11/2018 5:00 2.5 100 0.0 0 0.0 11.6 41.9 1
09/11/2018 5:10 3.0 100 0.0 0 0.0 11.7 42.0 1
09/11/2018 5:20 3.0 100 0.0 0 0.0 11.7 42.1 4
09/11/2018 5:30 2.9 100 0.0 0 0.0 11.5 41.5 4
09/11/2018 5:40 2.7 100 0.0 0 0.1 12.4 44.5 5
09/11/2018 5:50 2.7 100 0.0 0 0.0 12.6 45.5 7
09/11/2018 6:00 3.0 100 0.0 0 0.0 12.3 44.2 9
09/11/2018 6:10 2.7 100 0.0 0 0.0 12.6 45.5 9
09/11/2018 6:20 3.1 100 0.0 0 0.0 13.0 46.9 8
09/11/2018 6:30 2.7 100 0.0 0 0.0 13.4 48.1 7
09/11/2018 6:40 2.7 100 0.0 0 0.0 12.9 46.4 9
09/11/2018 6:50 2.9 100 0.0 0 0.1 13.4 48.1 9
09/11/2018 7:00 2.7 100 0.0 0 0.0 14.3 51.5 9
09/11/2018 7:10 3.0 100 0.0 0 0.0 14.4 51.9 11
09/11/2018 7:20 3.0 100 1.6 0 0.0 14.2 51.2 11
09/11/2018 7:30 2.8 100 34.8 86 0.0 13.4 48.3 14
09/11/2018 7:40 2.6 100 41.5 0 0.0 12.7 45.9 9
09/11/2018 7:50 2.6 100 41.4 0 0.0 13.3 48.0 9
09/11/2018 8:00 2.9 100 89.9 340 0.0 13.4 48.2 11
09/11/2018 8:10 2.9 100 105.2 396 0.0 13.1 47.0 11
09/11/2018 8:20 3.3 100 59.4 0 0.0 13.2 47.6 10
09/11/2018 8:30 3.0 100 94.2 0 0.0 13.0 46.6 10
09/11/2018 8:40 2.7 100 127.5 138 0.0 13.0 46.8 10
09/11/2018 8:50 2.5 100 195.8 588 0.0 13.7 49.3 10
09/11/2018 9:00 2.5 100 171.8 276 0.0 13.3 47.8 11
09/11/2018 9:10 2.5 100 161.0 158 0.0 12.3 44.2 14
09/11/2018 9:20 3.0 100 177.6 98 0.0 11.3 40.8 14
09/11/2018 9:30 3.3 100 220.0 474 0.0 11.1 39.9 15
09/11/2018 9:40 3.0 100 231.9 468 0.0 10.9 39.3 13
09/11/2018 9:50 3.3 100 236.9 448 0.0 10.8 38.7 14
09/11/2018 10:00 2.9 100 284.0 566 0.0 11.1 40.1 16
09/11/2018 10:10 3.7 100 313.0 600 0.0 10.9 39.2 13
09/11/2018 10:20 3.6 100 258.5 342 0.0 11.0 39.7 8
09/11/2018 10:30 3.4 100 190.2 70 0.0 11.7 42.1 360
09/11/2018 10:40 3.6 100 208.2 32 0.0 12.5 45.0 356
09/11/2018 10:50 3.4 100 201.0 90 0.0 12.3 44.3 354
09/11/2018 11:00 3.4 100 222.6 54 0.0 13.1 47.2 356
09/11/2018 11:10 3.6 100 302.6 564 0.0 13.0 46.9 4
09/11/2018 11:20 4.0 100 304.9 438 0.0 12.3 44.2 4
09/11/2018 11:30 3.9 100 293.2 370 0.0 11.9 42.9 3
09/11/2018 11:40 3.9 100 345.6 544 0.0 12.0 43.1 4
09/11/2018 11:50 3.8 100 332.5 486 0.0 11.9 42.7 1
09/11/2018 12:00 4.0 100 239.4 66 0.0 11.4 40.9 3
09/11/2018 12:10 3.7 100 278.9 330 0.0 11.1 40.0 357
09/11/2018 12:20 4.1 100 362.9 588 0.0 10.5 37.9 1
09/11/2018 12:30 4.3 100 444.6 600 0.0 9.7 34.8 1
09/11/2018 12:40 4.0 100 453.8 600 0.0 8.9 31.9 8
09/11/2018 12:50 3.8 100 470.1 538 0.0 6.9 24.8 9
09/11/2018 13:00 4.1 100 365.3 568 0.0 3.6 13.1 6
09/11/2018 13:10 4.5 100 229.7 168 0.0 3.4 12.2 358
09/11/2018 13:20 4.3 100 227.5 142 0.0 4.6 16.6 346
09/11/2018 13:30 4.0 100 209.3 80 0.0 5.0 18.1 334
09/11/2018 13:40 4.3 100 263.9 600 0.0 5.5 19.8 338
09/11/2018 13:50 4.4 100 254.5 476 0.0 5.7 20.6 335
09/11/2018 14:00 4.0 100 366.9 576 0.0 6.5 23.4 341
09/11/2018 14:10 4.1 100 365.1 600 0.0 5.8 20.7 349
09/11/2018 14:20 4.1 100 426.0 600 0.0 4.7 17.0 350
09/11/2018 14:30 4.7 100 358.7 600 0.0 3.9 14.0 356
09/11/2018 14:40 4.0 100 183.9 246 0.0 3.7 13.2 349
09/11/2018 14:50 3.8 98 239.3 530 0.0 5.4 19.4 344
09/11/2018 15:00 3.8 97 303.4 600 0.0 4.5 16.1 326
09/11/2018 15:10 4.0 96 266.0 600 0.0 4.5 16.0 321
09/11/2018 15:20 4.4 94 236.3 600 0.0 4.1 14.8 319
09/11/2018 15:30 4.9 83 207.8 600 0.0 4.6 16.7 309
09/11/2018 15:40 5.2 88 175.9 600 0.0 3.4 12.1 291
09/11/2018 15:50 4.8 86 150.3 600 0.0 4.1 14.7 309
09/11/2018 16:00 4.0 83 69.0 202 0.0 4.8 17.3 319
09/11/2018 16:10 4.0 82 40.4 28 0.0 4.7 17.0 308
09/11/2018 16:20 4.4 87 28.0 96 0.0 3.2 11.4 278
09/11/2018 16:30 4.1 95 28.2 218 0.0 2.6 9.3 248
09/11/2018 16:40 4.1 96 4.9 0 0.0 3.4 12.2 257
09/11/2018 16:50 3.8 98 0.0 0 0.0 3.9 14.1 249
09/11/2018 17:00 4.0 99 0.0 0 0.0 4.1 14.8 235
09/11/2018 17:10 3.4 98 0.0 0 0.0 4.5 16.1 223
09/11/2018 17:20 3.8 98 0.0 0 0.0 3.9 14.0 225
09/11/2018 17:30 3.3 96 0.0 0 0.0 4.5 16.1 233
09/11/2018 17:40 3.7 95 0.0 0 0.0 4.8 17.3 244
09/11/2018 17:50 3.3 93 0.0 0 0.0 4.8 17.1 249
09/11/2018 18:00 3.3 95 0.0 0 0.0 4.0 14.3 232
09/11/2018 18:10 3.4 96 0.0 0 0.0 3.9 13.9 240
09/11/2018 18:20 3.4 92 0.0 0 0.0 3.7 13.1 257
09/11/2018 18:30 3.4 88 0.0 0 0.0 3.1 11.2 267
09/11/2018 18:40 3.9 89 0.0 0 0.0 3.8 13.6 265
09/11/2018 18:50 4.0 83 0.0 0 0.0 3.1 11.2 276
09/11/2018 19:00 3.8 80 0.0 0 0.0 5.0 18.0 290
09/11/2018 19:10 3.9 78 0.0 0 0.0 5.2 18.8 295
09/11/2018 19:20 4.9 73 0.0 0 0.0 3.4 12.4 278
09/11/2018 19:30 4.6 74 0.0 0 0.0 3.5 12.6 273
09/11/2018 19:40 4.4 74 0.0 0 0.0 3.9 14.2 265
09/11/2018 19:50 4.3 78 0.0 0 0.0 3.4 12.3 263
09/11/2018 20:00 4.3 79 0.0 0 0.0 3.4 12.3 273
09/11/2018 20:10 4.0 81 0.0 0 0.0 3.3 11.8 261
09/11/2018 20:20 4.2 84 0.0 0 0.0 2.8 10.0 251
09/11/2018 20:30 4.0 86 0.0 0 0.0 2.8 9.9 245
09/11/2018 20:40 3.6 90 0.0 0 0.0 2.8 10.2 235
09/11/2018 20:50 4.0 91 0.0 0 0.0 3.2 11.5 259
09/11/2018 21:00 5.0 90 0.0 0 0.0 3.0 10.7 264
09/11/2018 21:10 4.4 92 0.0 0 0.0 2.8 10.0 198
09/11/2018 21:20 3.4 91 0.0 0 0.0 3.1 11.0 189
09/11/2018 21:30 3.6 94 0.0 0 0.0 4.1 14.7 166
09/11/2018 21:40 3.2 94 0.0 0 0.0 4.1 14.9 176
09/11/2018 21:50 3.8 91 0.0 0 0.0 3.9 14.2 187
09/11/2018 22:00 3.6 91 0.0 0 0.0 4.8 17.3 174
09/11/2018 22:10 3.6 94 0.0 0 0.0 6.5 23.3 165
09/11/2018 22:20 3.0 97 0.0 0 0.0 7.5 26.9 171
09/11/2018 22:30 3.3 98 0.0 0 0.0 7.2 25.8 166
09/11/2018 22:40 3.4 98 0.0 0 0.0 7.8 28.0 163
09/11/2018 22:50 2.9 98 0.0 0 0.0 8.7 31.2 163
09/11/2018 23:00 2.8 99 0.0 0 0.0 8.6 31.1 162
09/11/2018 23:10 3.1 100 0.0 0 0.0 9.5 34.1 161
09/11/2018 23:20 2.6 100 0.0 0 0.0 10.2 36.7 162
09/11/2018 23:30 2.9 100 0.0 0 0.0 9.8 35.4 161
09/11/2018 23:40 3.5 100 0.0 0 0.0 10.7 38.5 172
09/11/2018 23:50 3.1 99 0.0 0 0.0 9.9 35.5 169
Anterior Página 1 de 1 Siguiente
Los datos de precipitación registrados en estaciones que están en cumbres son inferiores a lo real, como consecuencia del efecto del viento y de la nieve.


NOTA: Tipo de datos según el color:
   - Valores diarios o 10 minutos correctos
   - Valores diarios calculados a partir de un número de datos 10 minutos menor que 144 y mayor que 120, o de un número de datos semihorarios menor que 48 y mayor que 40 (caso de las estaciones de Riegos de Navarra y del MARM)
   - Valores diez minutos estimados


Contacto        Enlaces        Aviso legal